createdAt,value
2023-04-26T21:19:01.651Z,51.291298
2023-04-26T21:20:01.615Z,51.291389
2023-04-26T21:21:01.661Z,51.291237
2023-04-26T21:22:01.598Z,51.291580
2023-04-26T21:23:01.705Z,51.291763
2023-04-26T21:24:01.587Z,51.291523
2023-04-26T21:25:01.562Z,51.291523
2023-04-26T21:26:01.540Z,51.291260
2023-04-26T21:27:01.593Z,51.291233
2023-04-26T21:28:01.532Z,51.291172
2023-04-26T21:29:01.513Z,51.291180
2023-04-26T21:30:01.514Z,51.291180
2023-04-26T21:31:01.542Z,51.291317
2023-04-26T21:32:01.570Z,51.291245
2023-04-26T21:33:01.543Z,51.291172
2023-04-26T21:34:01.466Z,51.291222
2023-04-26T21:35:01.452Z,51.291229
2023-04-26T21:36:01.448Z,51.291225
2023-04-26T21:37:01.431Z,51.291233
2023-04-26T21:38:01.433Z,51.291195
2023-04-26T21:39:01.413Z,51.291191
2023-04-26T21:40:01.394Z,51.291168
2023-04-26T21:41:01.379Z,51.291115
2023-04-26T21:42:01.365Z,51.291149
2023-04-26T21:43:05.232Z,51.291035
2023-04-26T21:44:01.354Z,51.291233
2023-04-26T21:45:01.337Z,51.291153
2023-04-26T21:46:01.333Z,51.291039
2023-04-26T21:47:01.414Z,51.291000
2023-04-26T21:48:01.351Z,51.291115
2023-04-26T21:49:01.271Z,51.291203
2023-04-26T21:50:01.393Z,51.291538
2023-04-26T21:51:01.269Z,51.291260
2023-04-26T21:52:01.259Z,51.291283
2023-04-26T21:53:01.249Z,51.291302
2023-04-26T21:54:01.237Z,51.291264
2023-04-26T21:55:01.202Z,51.291340
2023-04-26T21:56:01.217Z,51.291409
2023-04-26T21:57:01.204Z,51.291359
2023-04-26T21:58:01.172Z,51.291409
2023-04-26T21:59:01.205Z,51.291340
2023-04-26T22:00:01.188Z,51.291180
2023-04-26T22:01:01.205Z,51.291130
2023-04-26T22:02:01.284Z,51.291077
2023-04-26T22:03:01.252Z,51.290905
2023-04-26T22:04:01.307Z,51.291019
2023-04-26T22:05:01.109Z,51.290958
2023-04-26T22:06:01.078Z,51.290997
2023-04-26T22:07:01.101Z,51.290997
2023-04-26T22:08:01.062Z,51.290997
2023-04-26T22:09:01.040Z,51.290997
2023-04-26T22:10:02.053Z,51.290997
2023-04-26T22:11:01.014Z,51.290997
2023-04-26T22:12:01.016Z,51.290997
2023-04-26T22:13:01.003Z,51.290997
2023-04-26T22:14:01.048Z,51.290997
2023-04-26T22:15:01.150Z,51.290997
2023-04-26T22:16:01.097Z,51.290997
2023-04-26T22:17:00.982Z,51.290997
2023-04-26T22:18:01.420Z,51.290997
2023-04-26T22:19:00.958Z,51.291458
2023-04-26T22:20:00.946Z,51.291260
2023-04-26T22:21:00.908Z,51.291214
2023-04-26T22:22:00.910Z,51.291260
2023-04-26T22:23:00.891Z,51.291122
2023-04-26T22:24:00.879Z,51.291183
2023-04-26T22:25:00.890Z,51.291187
2023-04-26T22:26:00.885Z,51.291054
2023-04-26T22:27:01.205Z,51.291176
2023-04-26T22:28:00.838Z,51.291222
2023-04-26T22:29:00.838Z,51.291180
2023-04-26T22:30:09.104Z,51.291149
2023-04-26T22:31:00.839Z,51.291164
2023-04-26T22:32:00.811Z,51.291023
2023-04-26T22:33:00.813Z,51.291164
2023-04-26T22:34:00.760Z,51.291153
2023-04-26T22:35:00.738Z,51.291206
2023-04-26T22:36:00.743Z,51.291199
2023-04-26T22:37:13.193Z,51.291168
2023-04-26T22:38:00.714Z,51.291252
2023-04-26T22:39:00.714Z,51.291168
2023-04-26T22:40:00.695Z,51.291229
2023-04-26T22:41:00.728Z,51.291206
2023-04-26T22:42:00.673Z,51.291172
2023-04-26T22:43:00.653Z,51.291138
2023-04-26T22:44:00.741Z,51.291237
2023-04-26T22:45:00.636Z,51.291214
2023-04-26T22:46:00.626Z,51.291103
2023-04-26T22:47:00.643Z,51.291183
2023-04-26T22:48:00.653Z,51.291168
2023-04-26T22:49:00.585Z,51.291290
2023-04-26T22:50:00.586Z,51.291241
2023-04-26T22:51:00.557Z,51.291080
2023-04-26T22:52:07.709Z,51.291260
2023-04-26T22:53:00.561Z,51.291191
2023-04-26T22:54:05.868Z,51.291164
2023-04-26T22:55:01.564Z,51.291180
2023-04-26T22:56:00.513Z,51.291199
2023-04-26T22:57:00.558Z,51.291241
2023-04-26T22:58:00.547Z,51.291229
2023-04-26T22:59:00.474Z,51.291187
2023-04-26T23:00:00.452Z,51.291214
2023-04-26T23:01:00.463Z,51.291256
2023-04-26T23:02:00.434Z,51.291340
2023-04-26T23:03:00.533Z,51.291271
2023-04-26T23:04:00.469Z,51.291233
2023-04-26T23:05:00.538Z,51.291172
2023-04-26T23:06:01.379Z,51.291119
2023-04-26T23:07:00.383Z,51.291252
2023-04-26T23:08:00.400Z,51.291267
2023-04-26T23:09:00.360Z,51.291283
2023-04-26T23:10:00.489Z,51.291168
2023-04-26T23:11:01.335Z,51.290947
2023-04-26T23:12:00.317Z,51.290989
2023-04-26T23:13:01.088Z,51.291153
2023-04-26T23:14:00.390Z,51.291119
2023-04-26T23:15:00.290Z,51.291317
2023-04-26T23:16:00.305Z,51.291187
2023-04-26T23:17:00.333Z,51.291306
2023-04-26T23:18:00.326Z,51.291225
2023-04-26T23:19:00.275Z,51.291225
2023-04-26T23:20:00.259Z,51.291302
2023-04-26T23:21:00.227Z,51.291275
2023-04-26T23:22:00.968Z,51.291183
2023-04-26T23:23:00.201Z,51.291172
2023-04-26T23:24:00.176Z,51.291180
2023-04-26T23:25:00.189Z,51.291321
2023-04-26T23:26:00.194Z,51.291187
2023-04-26T23:27:00.134Z,51.291206
2023-04-26T23:28:00.155Z,51.291218
2023-04-26T23:29:00.162Z,51.290977
2023-04-26T23:30:00.191Z,51.291054
2023-04-26T23:31:00.163Z,51.291187
2023-04-26T23:32:00.124Z,51.291206
2023-04-26T23:33:00.114Z,51.291214
2023-04-26T23:34:00.058Z,51.291206
2023-04-26T23:35:00.090Z,51.291325
2023-04-26T23:36:00.052Z,51.291298
2023-04-26T23:37:07.517Z,51.291195
2023-04-26T23:38:00.014Z,51.291229
2023-04-26T23:39:00.000Z,51.291233
2023-04-26T23:39:59.998Z,51.291187
2023-04-26T23:40:59.990Z,51.291233
2023-04-26T23:41:59.983Z,51.291264
2023-04-26T23:42:59.996Z,51.291138
2023-04-26T23:43:59.950Z,51.291187
2023-04-26T23:44:59.933Z,51.291180
2023-04-26T23:45:59.985Z,51.291214
2023-04-26T23:47:00.155Z,51.291245
2023-04-26T23:47:59.946Z,51.291283
2023-04-26T23:48:59.887Z,51.291271
2023-04-26T23:49:59.881Z,51.291264
2023-04-26T23:50:59.919Z,51.291176
2023-04-26T23:51:59.872Z,51.291122
2023-04-26T23:52:59.868Z,51.291237
2023-04-26T23:53:59.832Z,51.291248
2023-04-26T23:54:59.817Z,51.291271
2023-04-26T23:55:59.820Z,51.291302
2023-04-26T23:56:59.868Z,51.291222
2023-04-26T23:57:59.795Z,51.291302
2023-04-26T23:58:59.786Z,51.291389
2023-04-26T23:59:59.771Z,51.291206
